Time;durP1;ratioP1;P1;durP2;ratioP2;P2;SDS_P1;SDS_P2;PMS_P1;PMS_P2;Temp;Humidity;BMP_temperature;BMP_pressure;BME280_temperature;BME280_humidity;BME280_pressure;Samples;Min_cycle;Max_cycle;Signal;HPM_P1;HPM_P2
2021/07/07 00:00:12;;;;;;;17.63;16.67;;;18.00;93.30;;;;;;5051402;28;20474;-70
2021/07/07 00:02:39;;;;;;;18.00;16.90;;;18.10;92.80;;;;;;5049599;28;21131;-70
2021/07/07 00:05:08;;;;;;;17.73;16.83;;;18.10;92.60;;;;;;5050860;28;20516;-70
2021/07/07 00:07:37;;;;;;;18.47;17.47;;;18.10;92.80;;;;;;5050022;28;20450;-70
2021/07/07 00:10:06;;;;;;;18.27;17.20;;;18.10;93.00;;;;;;5050495;28;20459;-71
2021/07/07 00:12:33;;;;;;;17.80;16.70;;;18.10;93.10;;;;;;5053926;28;20447;-70
2021/07/07 00:15:01;;;;;;;17.87;16.87;;;18.10;93.10;;;;;;5048008;28;20532;-71
2021/07/07 00:17:28;;;;;;;16.90;16.00;;;18.10;93.00;;;;;;5033079;28;20542;-71
2021/07/07 00:19:55;;;;;;;17.30;16.37;;;18.10;92.60;;;;;;5048117;28;20999;-70
2021/07/07 00:22:22;;;;;;;17.17;16.27;;;18.10;92.10;;;;;;5052471;28;20498;-71
2021/07/07 00:24:50;;;;;;;17.60;16.70;;;18.10;92.00;;;;;;5062289;28;21003;-70
2021/07/07 00:27:17;;;;;;;17.73;16.80;;;18.10;91.90;;;;;;5045060;28;20941;-71
2021/07/07 00:29:44;;;;;;;17.47;16.57;;;18.10;91.90;;;;;;5049120;28;20486;-70
2021/07/07 00:32:14;;;;;;;17.30;16.50;;;18.10;92.10;;;;;;5053108;28;20483;-70
2021/07/07 00:34:40;;;;;;;18.47;17.27;;;18.10;91.90;;;;;;5046962;28;21026;-70
2021/07/07 00:37:07;;;;;;;18.00;17.00;;;18.10;92.00;;;;;;5049157;28;20537;-70
2021/07/07 00:39:35;;;;;;;16.90;16.10;;;18.10;92.10;;;;;;5050480;28;20453;-70
2021/07/07 00:42:03;;;;;;;16.87;15.87;;;18.10;91.80;;;;;;5052624;28;20562;-70
2021/07/07 00:44:30;;;;;;;17.70;16.80;;;18.10;91.20;;;;;;5049035;28;20904;-70
2021/07/07 00:46:57;;;;;;;17.67;16.80;;;18.20;91.20;;;;;;5053210;28;20458;-70
2021/07/07 00:49:24;;;;;;;18.00;16.90;;;18.20;91.40;;;;;;5048517;28;20597;-70
2021/07/07 00:51:51;;;;;;;17.77;16.87;;;18.20;91.50;;;;;;5048117;28;20452;-70
2021/07/07 00:54:20;;;;;;;18.50;17.40;;;18.20;91.80;;;;;;5048375;28;20474;-70
2021/07/07 00:56:50;;;;;;;18.53;17.50;;;18.20;92.10;;;;;;5051234;28;20538;-69
2021/07/07 00:59:21;;;;;;;18.10;17.10;;;18.20;92.40;;;;;;5050071;28;20451;-70
2021/07/07 01:01:49;;;;;;;17.60;16.70;;;18.20;92.60;;;;;;5048070;28;20802;-69
2021/07/07 01:04:16;;;;;;;17.10;16.20;;;18.20;92.60;;;;;;5048770;28;20490;-70
2021/07/07 01:06:43;;;;;;;16.73;15.93;;;18.20;92.60;;;;;;5047225;28;20960;-70
2021/07/07 01:09:10;;;;;;;16.53;15.73;;;18.20;92.60;;;;;;5049296;28;20544;-70
2021/07/07 01:11:37;;;;;;;17.00;16.20;;;18.20;92.40;;;;;;5048217;28;20539;-70
2021/07/07 01:14:04;;;;;;;16.70;15.90;;;18.20;92.00;;;;;;5047340;28;20841;-70
2021/07/07 01:16:32;;;;;;;17.07;16.27;;;18.20;91.80;;;;;;5052685;28;20817;-70
2021/07/07 01:18:59;;;;;;;17.10;16.30;;;18.20;91.50;;;;;;5049603;28;20491;-70
2021/07/07 01:21:27;;;;;;;16.93;16.10;;;18.20;91.20;;;;;;5046314;28;20455;-70
2021/07/07 01:23:55;;;;;;;17.67;16.67;;;18.10;91.40;;;;;;5048164;28;20475;-70
2021/07/07 01:26:22;;;;;;;18.07;17.07;;;18.20;90.90;;;;;;5050044;28;20455;-70
2021/07/07 01:28:49;;;;;;;19.47;18.27;;;18.10;91.30;;;;;;5047831;28;20454;-70
2021/07/07 01:31:16;;;;;;;18.40;17.40;;;18.10;92.00;;;;;;5046625;28;20537;-70
2021/07/07 01:33:43;;;;;;;18.43;17.33;;;18.10;92.40;;;;;;5048387;28;20459;-70
2021/07/07 01:36:10;;;;;;;20.37;18.77;;;18.10;92.80;;;;;;5048164;28;20506;-70
2021/07/07 01:38:37;;;;;;;18.60;17.60;;;18.20;93.00;;;;;;5048271;28;20498;-70
2021/07/07 01:41:05;;;;;;;18.33;17.40;;;18.10;93.20;;;;;;5048769;28;20463;-70
2021/07/07 01:43:32;;;;;;;18.00;17.00;;;18.10;93.50;;;;;;5047287;28;20457;-70
2021/07/07 01:45:59;;;;;;;18.37;17.30;;;18.10;93.60;;;;;;5043543;28;20481;-70
2021/07/07 01:48:26;;;;;;;18.47;17.27;;;18.10;93.70;;;;;;5043945;28;20471;-70
2021/07/07 01:50:53;;;;;;;18.27;17.27;;;18.10;93.80;;;;;;5047085;28;21043;-70
2021/07/07 01:53:20;;;;;;;18.10;17.13;;;18.10;93.70;;;;;;5048168;28;20451;-70
2021/07/07 01:55:47;;;;;;;18.87;17.87;;;18.00;94.20;;;;;;5056138;28;20585;-70
2021/07/07 01:58:15;;;;;;;18.60;17.60;;;17.90;94.60;;;;;;5048602;28;20447;-71
2021/07/07 02:00:42;;;;;;;18.90;17.90;;;17.80;95.40;;;;;;5047569;28;21089;-71
2021/07/07 02:03:09;;;;;;;19.87;18.57;;;17.60;95.90;;;;;;5045121;28;20565;-70
2021/07/07 02:05:37;;;;;;;18.70;17.70;;;17.60;96.40;;;;;;5047940;28;20846;-70
2021/07/07 02:08:07;;;;;;;18.87;17.57;;;17.60;96.20;;;;;;5046832;28;20978;-71
2021/07/07 02:10:36;;;;;;;18.80;17.60;;;17.70;96.10;;;;;;5053126;28;20454;-71
2021/07/07 02:13:04;;;;;;;19.10;18.07;;;17.70;96.00;;;;;;5061156;28;20557;-70
2021/07/07 02:15:35;;;;;;;18.50;17.40;;;17.90;95.10;;;;;;5046916;28;20478;-71
2021/07/07 02:18:03;;;;;;;19.73;18.57;;;17.90;94.90;;;;;;5048107;28;20481;-71
2021/07/07 02:20:33;;;;;;;18.40;17.30;;;17.90;95.00;;;;;;5049462;28;20494;-71
2021/07/07 02:23:00;;;;;;;18.10;17.10;;;17.90;94.90;;;;;;5050679;28;20887;-71
2021/07/07 02:25:30;;;;;;;19.27;18.07;;;18.00;94.60;;;;;;5064955;28;20488;-71
2021/07/07 02:27:58;;;;;;;20.10;18.90;;;18.00;94.60;;;;;;5047546;28;20447;-71
2021/07/07 02:30:27;;;;;;;18.43;17.33;;;18.10;94.70;;;;;;5051477;28;20462;-71
2021/07/07 02:32:56;;;;;;;19.50;18.27;;;18.00;95.00;;;;;;5041984;28;20555;-71
2021/07/07 02:35:26;;;;;;;19.83;18.43;;;18.10;94.90;;;;;;5054312;28;20469;-71
2021/07/07 02:37:54;;;;;;;19.17;17.97;;;18.00;95.20;;;;;;5043529;28;20533;-71
2021/07/07 02:40:24;;;;;;;17.60;16.60;;;18.10;95.20;;;;;;5055716;28;20967;-71
2021/07/07 02:42:51;;;;;;;18.10;17.00;;;18.20;95.10;;;;;;5051553;28;20458;-71
2021/07/07 02:45:19;;;;;;;17.70;16.80;;;18.10;94.50;;;;;;5054439;28;20477;-70
2021/07/07 02:47:47;;;;;;;17.57;16.67;;;18.10;94.60;;;;;;5051787;28;20461;-71
2021/07/07 02:50:17;;;;;;;19.17;18.07;;;18.10;94.70;;;;;;5050478;28;20537;-71
2021/07/07 02:52:45;;;;;;;20.13;18.93;;;18.10;94.80;;;;;;5051608;28;20546;-70
2021/07/07 02:55:14;;;;;;;20.13;18.93;;;18.00;95.30;;;;;;5043291;28;20981;-71
2021/07/07 02:58:01;;;;;;;19.00;17.80;;;17.70;96.10;;;;;;5051283;28;20455;-71
2021/07/07 03:00:31;;;;;;;18.40;17.40;;;17.70;96.30;;;;;;5053700;28;20541;-71
2021/07/07 03:03:00;;;;;;;18.50;17.40;;;17.60;96.80;;;;;;5051361;28;20538;-71
2021/07/07 03:05:28;;;;;;;19.83;18.73;;;17.70;96.50;;;;;;5050259;28;21332;-70
2021/07/07 03:07:55;;;;;;;20.70;19.47;;;17.70;96.20;;;;;;5041152;28;20871;-71
2021/07/07 03:10:22;;;;;;;18.80;17.70;;;17.60;95.90;;;;;;5051296;28;20462;-70
2021/07/07 03:12:49;;;;;;;18.00;16.97;;;17.40;96.90;;;;;;5049995;28;20465;-71
2021/07/07 03:15:16;;;;;;;17.07;16.17;;;17.50;97.30;;;;;;5054448;28;20852;-70
2021/07/07 03:17:43;;;;;;;18.50;17.50;;;17.50;97.20;;;;;;5051695;28;21169;-70
2021/07/07 03:20:11;;;;;;;16.57;15.70;;;17.70;97.00;;;;;;5052263;28;20472;-70
2021/07/07 03:22:39;;;;;;;16.77;15.87;;;17.70;96.60;;;;;;5052524;28;20451;-70
2021/07/07 03:25:08;;;;;;;17.80;16.80;;;17.80;96.50;;;;;;5051200;28;20566;-70
2021/07/07 03:27:35;;;;;;;17.70;16.73;;;17.90;96.20;;;;;;5052765;28;20967;-71
2021/07/07 03:30:03;;;;;;;17.50;16.50;;;18.00;95.90;;;;;;5050180;28;20465;-70
2021/07/07 03:32:30;;;;;;;18.13;16.63;;;17.90;95.40;;;;;;5059965;28;20548;-70
2021/07/07 03:34:57;;;;;;;17.93;17.03;;;17.70;96.20;;;;;;5046806;28;20593;-71
2021/07/07 03:37:24;;;;;;;16.37;15.50;;;17.40;97.00;;;;;;5050544;28;20454;-71
2021/07/07 03:39:52;;;;;;;16.57;15.67;;;17.20;97.90;;;;;;5050244;28;20451;-70
2021/07/07 03:42:19;;;;;;;19.00;18.00;;;17.20;97.90;;;;;;5050149;28;20447;-70
2021/07/07 03:44:46;;;;;;;16.67;15.83;;;17.30;97.70;;;;;;5048336;28;20484;-70
2021/07/07 03:47:13;;;;;;;17.50;16.30;;;17.30;97.00;;;;;;5051219;28;20459;-70
2021/07/07 03:49:40;;;;;;;15.53;14.63;;;17.20;97.10;;;;;;5049313;28;20454;-70
2021/07/07 03:52:08;;;;;;;15.40;14.70;;;17.30;97.00;;;;;;5050187;28;20520;-70
2021/07/07 03:54:35;;;;;;;17.40;16.60;;;17.40;96.50;;;;;;5049841;28;20585;-71
2021/07/07 03:57:03;;;;;;;16.50;15.70;;;17.40;96.50;;;;;;5053773;28;20965;-71
2021/07/07 03:59:30;;;;;;;16.57;15.30;;;17.60;96.00;;;;;;5050612;28;20471;-71
2021/07/07 04:01:57;;;;;;;16.03;15.13;;;17.50;94.70;;;;;;5052823;28;20461;-71
2021/07/07 04:04:24;;;;;;;15.90;15.10;;;17.60;94.90;;;;;;5049202;28;20471;-70
2021/07/07 04:06:51;;;;;;;18.13;17.23;;;17.70;94.70;;;;;;5051485;28;20578;-70
2021/07/07 04:09:19;;;;;;;18.03;17.03;;;17.70;94.70;;;;;;5050622;28;20450;-70
2021/07/07 04:11:47;;;;;;;18.03;17.00;;;17.70;94.90;;;;;;5061956;28;20925;-70
2021/07/07 04:14:22;;;;;;;17.57;16.67;;;17.70;95.00;;;;;;5048811;28;20472;-70
2021/07/07 04:16:50;;;;;;;19.33;18.33;;;17.80;94.50;;;;;;5053084;28;20469;-70
2021/07/07 04:19:17;;;;;;;18.87;17.77;;;17.80;93.50;;;;;;5050843;28;20455;-70
2021/07/07 04:21:44;;;;;;;19.13;18.13;;;17.70;93.60;;;;;;5050990;28;20505;-70
2021/07/07 04:24:11;;;;;;;19.43;18.27;;;17.60;93.40;;;;;;5047532;28;20469;-70
2021/07/07 04:26:38;;;;;;;18.73;17.63;;;17.60;94.10;;;;;;5054989;28;20467;-69
2021/07/07 04:29:05;;;;;;;18.53;17.43;;;17.50;95.10;;;;;;5049104;28;20467;-70
2021/07/07 04:31:33;;;;;;;17.60;16.70;;;17.50;94.90;;;;;;5059167;28;20565;-70
2021/07/07 04:34:01;;;;;;;18.57;17.37;;;17.70;94.40;;;;;;5049131;28;20461;-69
2021/07/07 04:36:28;;;;;;;18.77;17.20;;;17.60;94.20;;;;;;5051428;28;20911;-70
2021/07/07 04:38:55;;;;;;;18.77;17.73;;;17.60;94.20;;;;;;5050068;28;20927;-70
2021/07/07 04:41:22;;;;;;;17.27;16.37;;;17.80;93.50;;;;;;5053341;28;20538;-69
2021/07/07 04:43:49;;;;;;;17.60;16.70;;;17.70;93.40;;;;;;5054838;28;20456;-69
2021/07/07 04:46:16;;;;;;;17.63;16.67;;;17.70;93.60;;;;;;5045447;28;20485;-70
2021/07/07 04:48:45;;;;;;;17.70;16.90;;;17.60;93.70;;;;;;5048301;28;20478;-70
2021/07/07 04:51:12;;;;;;;17.70;16.80;;;17.50;93.80;;;;;;5048162;28;20468;-70
2021/07/07 04:53:39;;;;;;;17.90;16.90;;;17.60;93.90;;;;;;5049455;28;20554;-70
2021/07/07 04:56:06;;;;;;;18.13;17.07;;;17.70;93.80;;;;;;5046826;28;20957;-70
2021/07/07 04:58:33;;;;;;;18.80;17.60;;;17.70;93.70;;;;;;5048962;28;20476;-70
2021/07/07 05:01:00;;;;;;;18.40;17.40;;;17.80;93.90;;;;;;5045506;28;20550;-70
2021/07/07 05:03:27;;;;;;;18.60;17.60;;;17.90;93.70;;;;;;5049313;28;20980;-71
2021/07/07 05:05:57;;;;;;;19.20;17.90;;;17.70;93.30;;;;;;5044776;28;20479;-71
2021/07/07 05:08:24;;;;;;;17.47;16.47;;;17.50;93.80;;;;;;5049125;28;20553;-70
2021/07/07 05:10:51;;;;;;;18.03;17.13;;;17.40;93.60;;;;;;5048502;28;20581;-71
2021/07/07 05:13:18;;;;;;;18.10;17.20;;;17.40;93.60;;;;;;5048158;28;20988;-71
2021/07/07 05:15:47;;;;;;;16.63;15.80;;;17.50;93.80;;;;;;5045799;28;20482;-69
2021/07/07 05:18:14;;;;;;;17.43;16.53;;;17.50;93.60;;;;;;5038313;28;20900;-69
2021/07/07 05:20:41;;;;;;;18.77;17.87;;;17.60;93.20;;;;;;5039404;28;20542;-70
2021/07/07 05:23:09;;;;;;;18.70;17.50;;;17.70;93.00;;;;;;5045176;28;20467;-69
2021/07/07 05:25:38;;;;;;;17.77;16.77;;;17.90;92.80;;;;;;5043967;28;20510;-70
2021/07/07 05:28:06;;;;;;;19.10;18.10;;;18.00;92.10;;;;;;5042739;28;20557;-69
2021/07/07 05:30:33;;;;;;;17.80;16.90;;;17.90;92.20;;;;;;5043978;28;20456;-70
2021/07/07 05:33:01;;;;;;;17.83;16.90;;;18.00;92.50;;;;;;5048450;28;20470;-70
2021/07/07 05:35:28;;;;;;;19.30;18.40;;;18.00;90.80;;;;;;5045807;28;20554;-70
2021/07/07 05:37:56;;;;;;;17.73;16.80;;;17.90;91.60;;;;;;5046267;28;20454;-70
2021/07/07 05:40:26;;;;;;;17.80;16.90;;;17.80;91.80;;;;;;5049205;28;20537;-70
2021/07/07 05:42:53;;;;;;;17.50;16.53;;;18.00;91.00;;;;;;5046405;28;20447;-70
2021/07/07 05:45:22;;;;;;;17.20;16.40;;;18.00;91.00;;;;;;5040324;28;21055;-70
2021/07/07 05:47:49;;;;;;;16.77;15.80;;;18.10;91.10;;;;;;5040681;28;20554;-70
2021/07/07 05:50:17;;;;;;;19.00;18.00;;;18.10;92.00;;;;;;5038304;28;22375;-70
2021/07/07 05:52:44;;;;;;;18.27;17.27;;;18.20;91.50;;;;;;5045549;28;20537;-70
2021/07/07 05:55:12;;;;;;;17.67;16.77;;;18.30;90.30;;;;;;5043440;28;20483;-70
2021/07/07 05:57:40;;;;;;;18.50;17.60;;;18.30;89.00;;;;;;5038573;28;20506;-70
2021/07/07 06:00:10;;;;;;;18.87;17.97;;;18.30;88.80;;;;;;5040214;28;20466;-72
2021/07/07 06:02:38;;;;;;;19.73;18.73;;;18.30;88.00;;;;;;5042558;28;20469;-71
2021/07/07 06:05:08;;;;;;;18.23;17.13;;;18.20;88.00;;;;;;5044404;28;20569;-71
2021/07/07 06:07:36;;;;;;;20.33;19.27;;;18.10;88.30;;;;;;5042195;28;20529;-72
2021/07/07 06:10:03;;;;;;;19.30;18.30;;;18.20;88.50;;;;;;5053600;28;20502;-72
2021/07/07 06:12:33;;;;;;;17.90;16.90;;;18.30;88.90;;;;;;5040401;28;20455;-72
2021/07/07 06:15:02;;;;;;;18.07;17.17;;;18.60;89.20;;;;;;5050474;28;20583;-71
2021/07/07 06:17:29;;;;;;;17.43;16.53;;;18.70;88.50;;;;;;5053341;28;20461;-71
2021/07/07 06:19:56;;;;;;;20.27;19.10;;;18.90;87.70;;;;;;5054906;28;20450;-70
2021/07/07 06:22:23;;;;;;;20.00;18.90;;;19.00;86.00;;;;;;5052013;28;20455;-70
2021/07/07 06:24:53;;;;;;;18.97;17.80;;;19.00;86.30;;;;;;5050489;28;21295;-69
2021/07/07 06:27:21;;;;;;;20.50;19.30;;;19.00;86.20;;;;;;5043135;28;20509;-69
2021/07/07 06:29:49;;;;;;;19.27;18.27;;;19.00;86.00;;;;;;5046580;28;20452;-69
2021/07/07 06:32:19;;;;;;;20.90;19.80;;;19.00;85.60;;;;;;5045601;28;20553;-70
2021/07/07 06:34:47;;;;;;;20.40;19.20;;;19.00;85.70;;;;;;5052173;28;20474;-70
2021/07/07 06:37:14;;;;;;;20.20;19.20;;;19.10;85.80;;;;;;5059465;28;20457;-70
2021/07/07 06:39:42;;;;;;;19.50;18.30;;;19.20;85.70;;;;;;5050432;28;20455;-72
2021/07/07 06:42:09;;;;;;;19.30;18.30;;;19.10;85.60;;;;;;5050939;28;21031;-70
2021/07/07 06:44:36;;;;;;;20.47;19.17;;;19.20;85.20;;;;;;5050086;28;21069;-69
2021/07/07 06:47:04;;;;;;;20.60;19.50;;;19.20;83.60;;;;;;5050875;28;21032;-71
2021/07/07 06:49:32;;;;;;;21.20;20.10;;;19.20;83.10;;;;;;5050710;28;20507;-69
2021/07/07 06:52:00;;;;;;;19.60;18.60;;;19.20;82.40;;;;;;5060626;28;20463;-70
2021/07/07 06:54:27;;;;;;;21.13;20.03;;;19.10;82.10;;;;;;5052307;28;20802;-70
2021/07/07 06:56:54;;;;;;;22.63;21.10;;;19.10;81.00;;;;;;5051513;28;20534;-70
2021/07/07 06:59:21;;;;;;;23.53;22.23;;;19.00;80.60;;;;;;5050938;28;20455;-70
2021/07/07 07:01:48;;;;;;;21.43;20.13;;;19.00;81.00;;;;;;5049050;28;20466;-71
2021/07/07 07:04:16;;;;;;;21.27;19.97;;;19.00;81.90;;;;;;5050780;28;20506;-72
2021/07/07 07:06:44;;;;;;;22.23;20.93;;;18.90;82.50;;;;;;5049777;28;20560;-72
2021/07/07 07:09:12;;;;;;;23.30;22.10;;;18.90;82.10;;;;;;5053472;28;20987;-72
2021/07/07 07:11:40;;;;;;;22.10;20.80;;;19.00;82.20;;;;;;5053651;28;21041;-72
2021/07/07 07:14:08;;;;;;;22.37;20.97;;;19.10;82.60;;;;;;5051043;28;20833;-72
2021/07/07 07:16:36;;;;;;;23.43;22.10;;;19.10;82.30;;;;;;5054755;28;20481;-72
2021/07/07 07:19:04;;;;;;;20.70;19.63;;;19.10;82.70;;;;;;5051703;28;20464;-71
2021/07/07 07:21:38;;;;;;;21.93;20.73;;;19.00;83.20;;;;;;5046134;28;20471;-71
2021/07/07 07:24:07;;;;;;;22.47;21.13;;;19.10;83.40;;;;;;5045612;28;20577;-71
2021/07/07 07:26:34;;;;;;;23.20;21.70;;;19.00;83.10;;;;;;5048724;28;20557;-71
2021/07/07 07:29:02;;;;;;;24.53;22.80;;;19.20;82.80;;;;;;5049088;28;20972;-72
2021/07/07 07:31:31;;;;;;;24.07;22.67;;;19.20;81.90;;;;;;5064312;28;20537;-71
2021/07/07 07:33:58;;;;;;;21.87;20.67;;;19.30;80.40;;;;;;5042084;28;20525;-70
2021/07/07 07:36:25;;;;;;;24.90;23.50;;;19.50;79.00;;;;;;5058192;28;20529;-71
2021/07/07 07:39:00;;;;;;;23.47;22.27;;;19.60;76.00;;;;;;5045295;28;20464;-71
2021/07/07 07:41:30;;;;;;;25.23;23.67;;;19.80;75.10;;;;;;5052392;28;20461;-72
2021/07/07 07:43:57;;;;;;;24.37;23.07;;;19.90;75.90;;;;;;5062437;28;20461;-72
2021/07/07 07:46:27;;;;;;;25.60;24.13;;;19.90;76.30;;;;;;5055766;28;20481;-71
2021/07/07 07:48:56;;;;;;;24.27;22.97;;;19.80;75.50;;;;;;5046929;28;20460;-73
2021/07/07 07:51:23;;;;;;;25.20;23.70;;;19.20;76.70;;;;;;5044235;28;21212;-72
2021/07/07 07:53:50;;;;;;;24.70;23.30;;;18.90;76.90;;;;;;5058090;28;20466;-73
2021/07/07 07:56:17;;;;;;;25.30;24.10;;;19.00;78.30;;;;;;5057346;28;20477;-73
2021/07/07 07:58:46;;;;;;;23.43;22.10;;;19.20;78.50;;;;;;5050559;28;20455;-72
2021/07/07 08:01:13;;;;;;;23.07;21.50;;;19.50;79.70;;;;;;5056543;28;20467;-72
2021/07/07 08:03:40;;;;;;;23.10;21.80;;;19.80;79.90;;;;;;5050186;28;20450;-73
2021/07/07 08:06:07;;;;;;;25.60;24.20;;;20.10;79.50;;;;;;5049702;28;20483;-73
2021/07/07 08:08:34;;;;;;;24.30;22.90;;;20.30;79.60;;;;;;5051121;28;20814;-72
2021/07/07 08:11:02;;;;;;;26.33;24.53;;;20.60;79.60;;;;;;5059221;28;20489;-72
2021/07/07 08:13:29;;;;;;;28.13;26.33;;;20.70;79.80;;;;;;5050284;28;20463;-72
2021/07/07 08:15:57;;;;;;;25.90;24.30;;;20.90;79.30;;;;;;5048668;28;20467;-72
2021/07/07 08:18:24;;;;;;;25.63;24.10;;;21.10;79.30;;;;;;5047745;28;20608;-72
2021/07/07 08:20:51;;;;;;;26.10;24.70;;;21.10;80.00;;;;;;5057367;28;20457;-72
2021/07/07 08:23:19;;;;;;;27.20;25.70;;;21.20;79.60;;;;;;5030929;28;20534;-73
2021/07/07 08:25:46;;;;;;;24.30;22.90;;;21.10;78.30;;;;;;5038566;28;20466;-71
2021/07/07 08:28:13;;;;;;;24.00;22.50;;;21.20;78.30;;;;;;5046957;28;20455;-72
2021/07/07 08:30:40;;;;;;;27.70;25.90;;;21.30;78.50;;;;;;5055184;28;20540;-71
2021/07/07 08:33:08;;;;;;;27.07;25.00;;;21.30;78.70;;;;;;5067321;28;20493;-72
2021/07/07 08:35:38;;;;;;;27.00;25.30;;;21.20;79.30;;;;;;5037067;28;20559;-72
2021/07/07 08:38:05;;;;;;;24.90;23.23;;;21.10;79.30;;;;;;5050384;28;20450;-72
2021/07/07 08:40:32;;;;;;;24.83;23.37;;;21.10;79.10;;;;;;5052094;28;20462;-72
2021/07/07 08:42:59;;;;;;;25.13;23.63;;;21.00;79.20;;;;;;5049796;28;20450;-71
2021/07/07 08:45:26;;;;;;;26.00;24.50;;;21.00;79.10;;;;;;5049370;28;20560;-71
2021/07/07 08:47:53;;;;;;;28.47;26.93;;;21.00;79.30;;;;;;5038705;28;21027;-71
2021/07/07 08:50:24;;;;;;;23.57;22.27;;;21.00;79.40;;;;;;5052067;28;20489;-72
2021/07/07 08:52:52;;;;;;;24.70;23.10;;;21.10;79.40;;;;;;5028616;28;20937;-72
2021/07/07 08:55:20;;;;;;;28.50;26.80;;;21.20;79.40;;;;;;5051743;28;20810;-72
2021/07/07 08:57:47;;;;;;;26.47;24.73;;;21.20;79.00;;;;;;5068848;28;20541;-72
2021/07/07 09:00:17;;;;;;;25.13;23.60;;;21.00;79.00;;;;;;5048592;28;20546;-72
2021/07/07 09:02:51;;;;;;;28.63;26.60;;;21.00;78.90;;;;;;5045124;28;20968;-72
2021/07/07 09:05:21;;;;;;;25.43;24.03;;;21.00;78.90;;;;;;5047964;28;20992;-72
2021/07/07 09:07:48;;;;;;;24.83;23.53;;;21.40;78.10;;;;;;5045632;28;20585;-72
2021/07/07 09:10:17;;;;;;;27.77;26.13;;;21.60;75.10;;;;;;5049628;28;20566;-72
2021/07/07 09:12:45;;;;;;;27.33;25.70;;;21.90;74.80;;;;;;5047867;28;20455;-74
2021/07/07 09:15:14;;;;;;;27.33;25.83;;;22.20;73.50;;;;;;5050743;28;20565;-73
2021/07/07 09:17:42;;;;;;;30.57;28.83;;;22.40;73.80;;;;;;5053583;28;20470;-74
2021/07/07 09:20:18;;;;;;;28.00;26.23;;;22.70;73.10;;;;;;5043593;28;20490;-72
2021/07/07 09:22:47;;;;;;;27.30;25.50;;;22.70;72.90;;;;;;5047518;28;20515;-72
2021/07/07 09:25:18;;;;;;;28.47;26.83;;;22.70;73.20;;;;;;5050826;28;20557;-72
2021/07/07 09:27:46;;;;;;;27.10;25.50;;;22.60;70.70;;;;;;5050878;28;20482;-72
2021/07/07 09:30:14;;;;;;;27.50;26.00;;;22.40;70.10;;;;;;5048052;28;20462;-71
2021/07/07 09:32:44;;;;;;;26.30;25.00;;;22.40;69.60;;;;;;5047182;28;21020;-72
2021/07/07 09:35:11;;;;;;;27.43;25.90;;;22.40;70.30;;;;;;5045867;28;20478;-72
2021/07/07 09:37:42;;;;;;;26.93;25.43;;;22.30;70.90;;;;;;5046921;28;20451;-72
2021/07/07 09:40:12;;;;;;;26.67;25.03;;;22.40;71.20;;;;;;5049784;28;20462;-72
2021/07/07 09:42:41;;;;;;;26.30;24.37;;;22.50;72.00;;;;;;5048384;28;20454;-72
2021/07/07 09:45:10;;;;;;;27.00;25.20;;;22.60;71.70;;;;;;5046357;28;20511;-72
2021/07/07 09:47:38;;;;;;;27.40;25.70;;;22.70;71.30;;;;;;5047412;28;20477;-72
2021/07/07 09:50:07;;;;;;;26.50;25.00;;;22.80;69.60;;;;;;5042748;28;20461;-72
2021/07/07 09:52:34;;;;;;;27.27;25.67;;;22.70;70.10;;;;;;5051421;28;20458;-71
2021/07/07 09:55:03;;;;;;;25.10;23.80;;;22.70;70.00;;;;;;5065767;28;20571;-70
2021/07/07 09:57:31;;;;;;;27.00;25.40;;;22.80;70.20;;;;;;5067699;28;20520;-70
2021/07/07 09:59:58;;;;;;;25.90;24.50;;;22.60;70.80;;;;;;5065007;28;20450;-70
2021/07/07 10:02:25;;;;;;;27.97;26.37;;;22.60;71.00;;;;;;5048050;28;20447;-73
2021/07/07 10:04:53;;;;;;;25.67;24.27;;;22.60;70.70;;;;;;5047528;28;20467;-72
2021/07/07 10:07:21;;;;;;;26.37;24.87;;;22.60;70.90;;;;;;5047181;28;20528;-72
2021/07/07 10:09:50;;;;;;;25.27;23.70;;;22.60;70.40;;;;;;5047870;28;20455;-72
2021/07/07 10:12:19;;;;;;;25.30;23.80;;;22.50;70.30;;;;;;5048242;28;20565;-72
2021/07/07 10:14:47;;;;;;;26.10;24.70;;;22.50;70.50;;;;;;5045833;28;20489;-71
2021/07/07 10:17:16;;;;;;;25.90;24.20;;;22.60;70.90;;;;;;5050069;28;20455;-72
2021/07/07 10:19:43;;;;;;;25.73;24.13;;;22.80;70.90;;;;;;5046526;28;20516;-72
2021/07/07 10:22:11;;;;;;;26.83;24.37;;;23.00;71.00;;;;;;5048749;28;20462;-72
2021/07/07 10:24:39;;;;;;;25.43;24.00;;;23.00;71.10;;;;;;5048265;28;20467;-72
2021/07/07 10:27:09;;;;;;;26.40;24.00;;;23.20;70.50;;;;;;5050365;28;20570;-72
2021/07/07 10:29:37;;;;;;;28.13;26.20;;;23.40;70.60;;;;;;5048362;28;21041;-72
2021/07/07 10:32:06;;;;;;;27.50;25.70;;;23.60;69.60;;;;;;5047347;28;20461;-72
2021/07/07 10:34:34;;;;;;;26.20;24.70;;;23.80;69.60;;;;;;5047050;28;20482;-72
2021/07/07 10:37:02;;;;;;;29.10;27.17;;;24.00;69.60;;;;;;5047620;28;20862;-72
2021/07/07 10:39:31;;;;;;;26.60;25.10;;;24.10;68.50;;;;;;5047548;28;20453;-73
2021/07/07 10:42:00;;;;;;;26.97;25.27;;;23.90;68.60;;;;;;5049054;28;20462;-72
2021/07/07 10:44:49;;;;;;;30.10;28.20;;;24.00;69.80;;;;;;5046883;28;20470;-72
2021/07/07 10:47:17;;;;;;;26.93;25.33;;;24.20;68.90;;;;;;5040506;28;20478;-72
2021/07/07 10:49:46;;;;;;;25.33;24.03;;;24.40;69.10;;;;;;5045171;28;20970;-72
2021/07/07 10:52:16;;;;;;;26.30;24.70;;;24.40;68.40;;;;;;5048106;28;20450;-71
2021/07/07 10:54:56;;;;;;;27.17;25.67;;;24.40;68.50;;;;;;5048059;28;20481;-72
2021/07/07 10:57:25;;;;;;;26.00;24.50;;;24.30;69.00;;;;;;5042505;28;20447;-72
2021/07/07 10:59:55;;;;;;;27.93;26.33;;;24.20;69.50;;;;;;5049776;28;20545;-72
2021/07/07 11:02:24;;;;;;;26.50;25.03;;;24.20;69.80;;;;;;5051031;28;20458;-72
2021/07/07 11:04:53;;;;;;;26.13;24.73;;;24.40;69.30;;;;;;5049729;28;20479;-72
2021/07/07 11:07:36;;;;;;;26.33;24.90;;;24.50;69.00;;;;;;5050409;28;20479;-72
2021/07/07 11:10:07;;;;;;;28.27;26.47;;;24.70;68.50;;;;;;5051231;28;20513;-72
2021/07/07 11:13:16;;;;;;;27.97;26.47;;;24.90;68.30;;;;;;5049973;28;20447;-73
2021/07/07 11:15:45;;;;;;;28.37;26.47;;;25.00;68.00;;;;;;5038266;28;20812;-72
2021/07/07 11:18:24;;;;;;;26.60;24.77;;;25.10;67.60;;;;;;5055593;28;20459;-72
2021/07/07 11:21:03;;;;;;;28.70;26.63;;;25.30;67.00;;;;;;5050677;28;20453;-72
2021/07/07 11:23:32;;;;;;;27.83;26.23;;;25.40;66.50;;;;;;5050524;28;20459;-72
2021/07/07 11:25:58;;;;;;;28.13;26.43;;;25.40;67.20;;;;;;5049687;28;20558;-72
2021/07/07 11:28:25;;;;;;;26.97;25.30;;;25.30;65.90;;;;;;5050251;28;20466;-72
2021/07/07 11:30:53;;;;;;;28.23;26.70;;;25.00;67.70;;;;;;5059277;28;20460;-72
2021/07/07 11:33:21;;;;;;;29.37;27.60;;;25.00;66.90;;;;;;5063559;28;20478;-72
2021/07/07 11:35:50;;;;;;;27.60;25.60;;;25.00;66.80;;;;;;5056222;28;20482;-72
2021/07/07 11:38:21;;;;;;;27.17;25.67;;;25.00;66.30;;;;;;5056060;28;20451;-72
2021/07/07 11:40:52;;;;;;;27.23;25.50;;;25.30;65.40;;;;;;5049159;28;20459;-72
2021/07/07 11:43:21;;;;;;;27.20;25.50;;;25.40;65.20;;;;;;5047735;28;20459;-72
2021/07/07 11:45:50;;;;;;;28.43;27.03;;;25.50;64.90;;;;;;5050272;28;20887;-71
2021/07/07 11:48:20;;;;;;;28.57;26.73;;;25.30;65.50;;;;;;5040227;28;20478;-71
2021/07/07 11:50:52;;;;;;;26.57;25.17;;;25.30;65.90;;;;;;5056066;28;20523;-72
2021/07/07 11:53:19;;;;;;;26.53;25.13;;;25.30;65.60;;;;;;5051003;28;20450;-71
2021/07/07 11:55:53;;;;;;;27.37;25.87;;;25.20;66.60;;;;;;5048627;28;20483;-71
2021/07/07 11:58:23;;;;;;;26.93;25.43;;;25.20;65.80;;;;;;5039756;28;20473;-72
2021/07/07 12:00:51;;;;;;;26.27;24.97;;;25.20;65.90;;;;;;5066307;28;20461;-72
2021/07/07 12:03:19;;;;;;;30.30;28.87;;;25.20;66.20;;;;;;5049201;28;20461;-71
2021/07/07 12:05:55;;;;;;;27.70;26.10;;;25.30;65.70;;;;;;5054897;28;20480;-69
2021/07/07 12:08:23;;;;;;;27.53;25.93;;;25.50;65.50;;;;;;5048850;28;21298;-70
2021/07/07 12:10:52;;;;;;;27.07;25.53;;;25.70;65.90;;;;;;5055421;28;20486;-69
2021/07/07 12:13:27;;;;;;;26.77;25.20;;;26.10;65.10;;;;;;5054356;28;20459;-71
2021/07/07 12:16:09;;;;;;;27.30;25.70;;;26.50;64.20;;;;;;5054216;28;20845;-71
2021/07/07 12:18:36;;;;;;;26.20;24.80;;;26.40;62.70;;;;;;5049454;28;20625;-71
2021/07/07 12:21:05;;;;;;;28.40;26.70;;;26.10;63.30;;;;;;5056697;28;20545;-72
2021/07/07 12:23:31;;;;;;;28.27;26.60;;;26.00;64.20;;;;;;5050123;28;20545;-71
2021/07/07 12:26:03;;;;;;;27.57;25.97;;;26.00;65.10;;;;;;5055593;28;21309;-71
2021/07/07 12:28:31;;;;;;;27.37;25.77;;;26.00;65.40;;;;;;5050208;28;20566;-75
2021/07/07 12:30:59;;;;;;;27.90;26.20;;;26.10;65.90;;;;;;5043978;28;20964;-71
2021/07/07 12:33:30;;;;;;;29.60;27.90;;;26.10;64.80;;;;;;5048974;28;20462;-71